sensor_id;sensor_type;location;lat;lon;timestamp;temperature;humidity
18694;DHT22;9477;51.414;10.362;2022-09-09T00:00:13;18.50;81.60
18694;DHT22;9477;51.414;10.362;2022-09-09T00:02:19;18.50;81.40
18694;DHT22;9477;51.414;10.362;2022-09-09T00:04:28;18.50;81.30
18694;DHT22;9477;51.414;10.362;2022-09-09T00:06:33;18.40;81.40
18694;DHT22;9477;51.414;10.362;2022-09-09T00:08:44;18.50;81.40
18694;DHT22;9477;51.414;10.362;2022-09-09T00:10:51;18.40;81.30
18694;DHT22;9477;51.414;10.362;2022-09-09T00:13:02;18.40;81.50
18694;DHT22;9477;51.414;10.362;2022-09-09T00:15:13;18.40;81.60
18694;DHT22;9477;51.414;10.362;2022-09-09T00:17:26;18.30;81.50
18694;DHT22;9477;51.414;10.362;2022-09-09T00:19:38;18.30;81.60
18694;DHT22;9477;51.414;10.362;2022-09-09T00:21:49;18.30;82.30
18694;DHT22;9477;51.414;10.362;2022-09-09T00:23:55;18.30;81.70
18694;DHT22;9477;51.414;10.362;2022-09-09T00:26:04;18.20;81.90
18694;DHT22;9477;51.414;10.362;2022-09-09T00:28:13;18.30;82.10
18694;DHT22;9477;51.414;10.362;2022-09-09T00:30:22;18.30;81.90
18694;DHT22;9477;51.414;10.362;2022-09-09T00:32:29;18.30;81.90
18694;DHT22;9477;51.414;10.362;2022-09-09T00:34:35;18.30;81.90
18694;DHT22;9477;51.414;10.362;2022-09-09T00:36:39;18.30;81.70
18694;DHT22;9477;51.414;10.362;2022-09-09T00:38:46;18.20;81.80
18694;DHT22;9477;51.414;10.362;2022-09-09T00:40:52;18.20;81.80
18694;DHT22;9477;51.414;10.362;2022-09-09T00:43:10;18.20;81.70
18694;DHT22;9477;51.414;10.362;2022-09-09T00:45:43;18.20;81.70
18694;DHT22;9477;51.414;10.362;2022-09-09T00:47:53;18.20;81.80
18694;DHT22;9477;51.414;10.362;2022-09-09T00:50:01;18.20;81.80
18694;DHT22;9477;51.414;10.362;2022-09-09T00:52:21;18.20;81.80
18694;DHT22;9477;51.414;10.362;2022-09-09T00:54:36;18.20;81.90
18694;DHT22;9477;51.414;10.362;2022-09-09T00:56:47;18.20;81.70
18694;DHT22;9477;51.414;10.362;2022-09-09T00:58:59;18.20;82.00
18694;DHT22;9477;51.414;10.362;2022-09-09T01:01:09;18.20;81.80
18694;DHT22;9477;51.414;10.362;2022-09-09T01:03:20;18.20;81.90
18694;DHT22;9477;51.414;10.362;2022-09-09T01:05:33;18.20;82.10
18694;DHT22;9477;51.414;10.362;2022-09-09T01:07:39;18.20;82.00
18694;DHT22;9477;51.414;10.362;2022-09-09T01:09:51;18.20;82.10
18694;DHT22;9477;51.414;10.362;2022-09-09T01:11:59;18.10;82.00
18694;DHT22;9477;51.414;10.362;2022-09-09T01:14:14;18.20;82.00
18694;DHT22;9477;51.414;10.362;2022-09-09T01:16:20;18.20;81.90
18694;DHT22;9477;51.414;10.362;2022-09-09T01:18:27;18.10;81.60
18694;DHT22;9477;51.414;10.362;2022-09-09T01:20:39;18.10;81.60
18694;DHT22;9477;51.414;10.362;2022-09-09T01:22:57;18.10;81.70
18694;DHT22;9477;51.414;10.362;2022-09-09T01:25:22;18.10;81.70
18694;DHT22;9477;51.414;10.362;2022-09-09T01:27:32;18.10;81.70
18694;DHT22;9477;51.414;10.362;2022-09-09T01:29:36;18.10;81.50
18694;DHT22;9477;51.414;10.362;2022-09-09T01:31:40;18.00;81.40
18694;DHT22;9477;51.414;10.362;2022-09-09T01:33:43;18.00;81.40
18694;DHT22;9477;51.414;10.362;2022-09-09T01:35:50;18.00;81.50
18694;DHT22;9477;51.414;10.362;2022-09-09T01:37:56;17.90;81.80
18694;DHT22;9477;51.414;10.362;2022-09-09T01:39:58;17.90;81.80
18694;DHT22;9477;51.414;10.362;2022-09-09T01:42:02;17.90;82.00
18694;DHT22;9477;51.414;10.362;2022-09-09T01:44:08;17.90;81.90
18694;DHT22;9477;51.414;10.362;2022-09-09T01:46:12;17.90;82.60
18694;DHT22;9477;51.414;10.362;2022-09-09T01:48:16;17.90;81.80
18694;DHT22;9477;51.414;10.362;2022-09-09T01:50:20;17.90;81.80
18694;DHT22;9477;51.414;10.362;2022-09-09T01:55:49;17.90;81.90
18694;DHT22;9477;51.414;10.362;2022-09-09T01:58:06;17.80;81.80
18694;DHT22;9477;51.414;10.362;2022-09-09T02:00:13;17.80;81.80
18694;DHT22;9477;51.414;10.362;2022-09-09T02:02:19;17.80;81.80
18694;DHT22;9477;51.414;10.362;2022-09-09T02:04:36;17.90;81.90
18694;DHT22;9477;51.414;10.362;2022-09-09T02:06:40;17.90;81.90
18694;DHT22;9477;51.414;10.362;2022-09-09T02:08:46;17.90;81.80
18694;DHT22;9477;51.414;10.362;2022-09-09T02:10:56;17.80;82.00
18694;DHT22;9477;51.414;10.362;2022-09-09T02:13:03;17.90;82.30
18694;DHT22;9477;51.414;10.362;2022-09-09T02:15:14;17.90;82.20
18694;DHT22;9477;51.414;10.362;2022-09-09T02:17:24;17.90;82.30
18694;DHT22;9477;51.414;10.362;2022-09-09T02:19:32;17.90;82.40
18694;DHT22;9477;51.414;10.362;2022-09-09T02:21:35;17.90;82.30
18694;DHT22;9477;51.414;10.362;2022-09-09T02:23:39;17.90;82.30
18694;DHT22;9477;51.414;10.362;2022-09-09T02:25:44;18.00;82.50
18694;DHT22;9477;51.414;10.362;2022-09-09T02:27:50;18.00;82.50
18694;DHT22;9477;51.414;10.362;2022-09-09T02:29:55;18.00;83.20
18694;DHT22;9477;51.414;10.362;2022-09-09T02:32:03;18.00;82.50
18694;DHT22;9477;51.414;10.362;2022-09-09T02:34:09;18.00;82.60
18694;DHT22;9477;51.414;10.362;2022-09-09T02:36:14;18.10;82.80
18694;DHT22;9477;51.414;10.362;2022-09-09T02:38:19;18.10;82.70
18694;DHT22;9477;51.414;10.362;2022-09-09T02:40:24;18.10;82.70
18694;DHT22;9477;51.414;10.362;2022-09-09T02:42:27;18.20;82.90
18694;DHT22;9477;51.414;10.362;2022-09-09T02:44:30;18.20;82.80
18694;DHT22;9477;51.414;10.362;2022-09-09T02:46:44;18.20;82.90
18694;DHT22;9477;51.414;10.362;2022-09-09T02:48:57;18.30;83.00
18694;DHT22;9477;51.414;10.362;2022-09-09T02:51:07;18.30;82.80
18694;DHT22;9477;51.414;10.362;2022-09-09T02:53:16;18.40;82.80
18694;DHT22;9477;51.414;10.362;2022-09-09T02:55:24;18.40;82.90
18694;DHT22;9477;51.414;10.362;2022-09-09T02:57:33;18.30;82.80
18694;DHT22;9477;51.414;10.362;2022-09-09T02:59:37;18.30;83.00
18694;DHT22;9477;51.414;10.362;2022-09-09T03:01:40;18.40;83.10
18694;DHT22;9477;51.414;10.362;2022-09-09T03:03:44;18.40;83.20
18694;DHT22;9477;51.414;10.362;2022-09-09T03:05:50;18.40;83.30
18694;DHT22;9477;51.414;10.362;2022-09-09T03:07:53;18.30;83.60
18694;DHT22;9477;51.414;10.362;2022-09-09T03:10:00;18.40;83.70
18694;DHT22;9477;51.414;10.362;2022-09-09T03:12:04;18.40;83.80
18694;DHT22;9477;51.414;10.362;2022-09-09T03:14:08;18.40;84.10
18694;DHT22;9477;51.414;10.362;2022-09-09T03:16:13;18.50;84.20
18694;DHT22;9477;51.414;10.362;2022-09-09T03:18:16;18.50;84.80
18694;DHT22;9477;51.414;10.362;2022-09-09T03:20:20;18.60;84.00
18694;DHT22;9477;51.414;10.362;2022-09-09T03:22:25;18.60;83.90
18694;DHT22;9477;51.414;10.362;2022-09-09T03:24:29;18.60;84.00
18694;DHT22;9477;51.414;10.362;2022-09-09T03:26:32;18.60;84.10
18694;DHT22;9477;51.414;10.362;2022-09-09T03:28:35;18.60;84.10
18694;DHT22;9477;51.414;10.362;2022-09-09T03:30:38;18.60;84.20
18694;DHT22;9477;51.414;10.362;2022-09-09T03:32:41;18.70;84.20
18694;DHT22;9477;51.414;10.362;2022-09-09T03:34:49;18.70;84.30
18694;DHT22;9477;51.414;10.362;2022-09-09T03:36:52;18.70;84.40
18694;DHT22;9477;51.414;10.362;2022-09-09T03:38:56;18.80;84.30
18694;DHT22;9477;51.414;10.362;2022-09-09T03:41:01;18.90;84.30
18694;DHT22;9477;51.414;10.362;2022-09-09T03:43:04;18.90;84.20
18694;DHT22;9477;51.414;10.362;2022-09-09T03:45:09;18.90;84.80
18694;DHT22;9477;51.414;10.362;2022-09-09T03:47:15;18.90;84.00
18694;DHT22;9477;51.414;10.362;2022-09-09T03:49:23;18.90;84.10
18694;DHT22;9477;51.414;10.362;2022-09-09T03:51:28;19.00;84.10
18694;DHT22;9477;51.414;10.362;2022-09-09T03:53:32;19.00;84.00
18694;DHT22;9477;51.414;10.362;2022-09-09T03:55:37;19.00;84.10
18694;DHT22;9477;51.414;10.362;2022-09-09T03:57:39;19.10;84.20
18694;DHT22;9477;51.414;10.362;2022-09-09T03:59:42;19.20;84.10
18694;DHT22;9477;51.414;10.362;2022-09-09T04:01:45;19.20;84.00
18694;DHT22;9477;51.414;10.362;2022-09-09T04:03:48;19.20;84.00
18694;DHT22;9477;51.414;10.362;2022-09-09T04:05:52;19.20;83.90
18694;DHT22;9477;51.414;10.362;2022-09-09T04:07:54;19.20;83.70
18694;DHT22;9477;51.414;10.362;2022-09-09T04:09:57;19.30;83.70
18694;DHT22;9477;51.414;10.362;2022-09-09T04:12:02;19.30;83.50
18694;DHT22;9477;51.414;10.362;2022-09-09T04:14:05;19.30;83.40
18694;DHT22;9477;51.414;10.362;2022-09-09T04:16:10;19.30;83.40
18694;DHT22;9477;51.414;10.362;2022-09-09T04:18:14;19.40;83.40
18694;DHT22;9477;51.414;10.362;2022-09-09T04:20:20;19.40;83.40
18694;DHT22;9477;51.414;10.362;2022-09-09T04:22:24;19.30;83.20
18694;DHT22;9477;51.414;10.362;2022-09-09T04:24:28;19.30;83.20
18694;DHT22;9477;51.414;10.362;2022-09-09T04:26:31;19.30;83.20
18694;DHT22;9477;51.414;10.362;2022-09-09T04:28:37;19.20;83.10
18694;DHT22;9477;51.414;10.362;2022-09-09T04:30:40;19.30;83.10
18694;DHT22;9477;51.414;10.362;2022-09-09T04:32:42;19.20;83.00
18694;DHT22;9477;51.414;10.362;2022-09-09T04:34:45;19.20;83.00
18694;DHT22;9477;51.414;10.362;2022-09-09T04:36:49;19.20;83.10
18694;DHT22;9477;51.414;10.362;2022-09-09T04:38:53;19.20;83.10
18694;DHT22;9477;51.414;10.362;2022-09-09T04:40:56;19.20;83.10
18694;DHT22;9477;51.414;10.362;2022-09-09T04:42:59;19.20;83.00
18694;DHT22;9477;51.414;10.362;2022-09-09T04:45:04;19.20;82.90
18694;DHT22;9477;51.414;10.362;2022-09-09T04:47:08;19.20;82.90
18694;DHT22;9477;51.414;10.362;2022-09-09T04:49:11;19.20;82.80
18694;DHT22;9477;51.414;10.362;2022-09-09T04:51:16;19.20;82.80
18694;DHT22;9477;51.414;10.362;2022-09-09T04:53:18;19.20;82.80
18694;DHT22;9477;51.414;10.362;2022-09-09T04:55:21;19.10;82.70
18694;DHT22;9477;51.414;10.362;2022-09-09T04:57:24;19.00;82.80
18694;DHT22;9477;51.414;10.362;2022-09-09T04:59:27;19.10;82.90
18694;DHT22;9477;51.414;10.362;2022-09-09T05:01:31;19.00;82.60
18694;DHT22;9477;51.414;10.362;2022-09-09T05:03:34;19.00;82.70
18694;DHT22;9477;51.414;10.362;2022-09-09T05:05:36;19.00;82.60
18694;DHT22;9477;51.414;10.362;2022-09-09T05:07:39;19.00;82.60
18694;DHT22;9477;51.414;10.362;2022-09-09T05:09:43;19.00;82.50
18694;DHT22;9477;51.414;10.362;2022-09-09T05:11:46;19.00;82.50
18694;DHT22;9477;51.414;10.362;2022-09-09T05:13:52;19.00;82.40
18694;DHT22;9477;51.414;10.362;2022-09-09T05:15:55;19.00;82.30
18694;DHT22;9477;51.414;10.362;2022-09-09T05:18:00;19.00;82.40
18694;DHT22;9477;51.414;10.362;2022-09-09T05:20:04;19.10;82.50
18694;DHT22;9477;51.414;10.362;2022-09-09T05:22:11;19.10;82.40
18694;DHT22;9477;51.414;10.362;2022-09-09T05:24:14;19.10;82.50
18694;DHT22;9477;51.414;10.362;2022-09-09T05:26:20;19.00;82.50
18694;DHT22;9477;51.414;10.362;2022-09-09T05:28:23;19.10;82.60
18694;DHT22;9477;51.414;10.362;2022-09-09T05:30:27;19.10;82.50
18694;DHT22;9477;51.414;10.362;2022-09-09T05:32:30;19.10;82.50
18694;DHT22;9477;51.414;10.362;2022-09-09T05:34:36;19.10;82.50
18694;DHT22;9477;51.414;10.362;2022-09-09T05:36:41;19.20;82.50
18694;DHT22;9477;51.414;10.362;2022-09-09T05:38:47;19.20;82.30
18694;DHT22;9477;51.414;10.362;2022-09-09T05:40:50;19.20;82.30
18694;DHT22;9477;51.414;10.362;2022-09-09T05:43:00;19.30;82.30
18694;DHT22;9477;51.414;10.362;2022-09-09T05:45:04;19.40;82.30
18694;DHT22;9477;51.414;10.362;2022-09-09T05:47:06;19.30;82.30
18694;DHT22;9477;51.414;10.362;2022-09-09T05:49:10;19.40;82.50
18694;DHT22;9477;51.414;10.362;2022-09-09T05:51:20;19.40;82.50
18694;DHT22;9477;51.414;10.362;2022-09-09T05:53:23;19.50;82.60
18694;DHT22;9477;51.414;10.362;2022-09-09T05:55:26;19.50;82.50
18694;DHT22;9477;51.414;10.362;2022-09-09T05:57:29;19.50;82.40
18694;DHT22;9477;51.414;10.362;2022-09-09T05:59:32;19.50;82.50
18694;DHT22;9477;51.414;10.362;2022-09-09T06:01:36;19.60;82.50
18694;DHT22;9477;51.414;10.362;2022-09-09T06:03:43;19.60;82.50
18694;DHT22;9477;51.414;10.362;2022-09-09T06:05:46;19.70;83.20
18694;DHT22;9477;51.414;10.362;2022-09-09T06:07:53;19.70;82.40
18694;DHT22;9477;51.414;10.362;2022-09-09T06:09:56;19.80;82.50
18694;DHT22;9477;51.414;10.362;2022-09-09T06:12:00;19.80;82.40
18694;DHT22;9477;51.414;10.362;2022-09-09T06:14:04;19.80;82.30
18694;DHT22;9477;51.414;10.362;2022-09-09T06:16:08;19.90;82.30
18694;DHT22;9477;51.414;10.362;2022-09-09T06:18:13;20.00;82.30
18694;DHT22;9477;51.414;10.362;2022-09-09T06:20:15;20.00;82.30
18694;DHT22;9477;51.414;10.362;2022-09-09T06:22:21;20.00;82.40
18694;DHT22;9477;51.414;10.362;2022-09-09T06:24:25;20.00;82.40
18694;DHT22;9477;51.414;10.362;2022-09-09T06:26:30;20.00;83.10
18694;DHT22;9477;51.414;10.362;2022-09-09T06:28:33;20.10;82.60
18694;DHT22;9477;51.414;10.362;2022-09-09T06:30:36;20.10;82.60
18694;DHT22;9477;51.414;10.362;2022-09-09T06:32:39;20.10;82.60
18694;DHT22;9477;51.414;10.362;2022-09-09T06:34:42;20.20;82.60
18694;DHT22;9477;51.414;10.362;2022-09-09T06:36:46;20.20;82.50
18694;DHT22;9477;51.414;10.362;2022-09-09T06:38:50;20.30;82.50
18694;DHT22;9477;51.414;10.362;2022-09-09T06:40:55;20.30;82.40
18694;DHT22;9477;51.414;10.362;2022-09-09T06:42:59;20.30;82.30
18694;DHT22;9477;51.414;10.362;2022-09-09T06:45:03;20.30;82.10
18694;DHT22;9477;51.414;10.362;2022-09-09T06:47:06;20.30;82.20
18694;DHT22;9477;51.414;10.362;2022-09-09T06:49:09;20.30;82.30
18694;DHT22;9477;51.414;10.362;2022-09-09T06:51:17;20.30;82.50
18694;DHT22;9477;51.414;10.362;2022-09-09T06:53:20;20.30;82.60
18694;DHT22;9477;51.414;10.362;2022-09-09T06:55:23;20.30;82.70
18694;DHT22;9477;51.414;10.362;2022-09-09T06:57:27;20.30;82.70
18694;DHT22;9477;51.414;10.362;2022-09-09T06:59:38;20.40;82.80
18694;DHT22;9477;51.414;10.362;2022-09-09T07:01:44;20.50;83.00
18694;DHT22;9477;51.414;10.362;2022-09-09T07:03:53;20.60;82.80
18694;DHT22;9477;51.414;10.362;2022-09-09T07:05:56;20.60;82.80
18694;DHT22;9477;51.414;10.362;2022-09-09T07:07:59;20.70;82.70
18694;DHT22;9477;51.414;10.362;2022-09-09T07:10:02;20.80;82.70
18694;DHT22;9477;51.414;10.362;2022-09-09T07:12:06;21.00;82.80
18694;DHT22;9477;51.414;10.362;2022-09-09T07:14:10;21.10;82.40
18694;DHT22;9477;51.414;10.362;2022-09-09T07:16:16;21.20;82.40
18694;DHT22;9477;51.414;10.362;2022-09-09T07:18:20;21.30;82.50
18694;DHT22;9477;51.414;10.362;2022-09-09T07:20:22;21.40;82.40
18694;DHT22;9477;51.414;10.362;2022-09-09T07:22:27;21.40;82.20
18694;DHT22;9477;51.414;10.362;2022-09-09T07:24:30;21.40;82.20
18694;DHT22;9477;51.414;10.362;2022-09-09T07:26:33;21.50;82.40
18694;DHT22;9477;51.414;10.362;2022-09-09T07:28:37;21.50;82.20
18694;DHT22;9477;51.414;10.362;2022-09-09T07:30:41;21.60;82.30
18694;DHT22;9477;51.414;10.362;2022-09-09T07:32:44;21.60;81.90
18694;DHT22;9477;51.414;10.362;2022-09-09T07:34:47;21.70;82.10
18694;DHT22;9477;51.414;10.362;2022-09-09T07:36:51;21.70;81.90
18694;DHT22;9477;51.414;10.362;2022-09-09T07:38:55;21.70;81.60
18694;DHT22;9477;51.414;10.362;2022-09-09T07:41:03;21.80;82.20
18694;DHT22;9477;51.414;10.362;2022-09-09T07:43:07;21.90;82.30
18694;DHT22;9477;51.414;10.362;2022-09-09T07:45:10;21.90;81.80
18694;DHT22;9477;51.414;10.362;2022-09-09T07:47:14;21.90;81.90
18694;DHT22;9477;51.414;10.362;2022-09-09T07:49:17;21.90;82.30
18694;DHT22;9477;51.414;10.362;2022-09-09T07:51:30;22.00;82.40
18694;DHT22;9477;51.414;10.362;2022-09-09T07:53:34;21.90;81.90
18694;DHT22;9477;51.414;10.362;2022-09-09T07:55:38;21.90;82.00
18694;DHT22;9477;51.414;10.362;2022-09-09T07:57:40;21.90;82.00
18694;DHT22;9477;51.414;10.362;2022-09-09T07:59:43;22.00;82.10
18694;DHT22;9477;51.414;10.362;2022-09-09T08:01:48;22.10;82.00
18694;DHT22;9477;51.414;10.362;2022-09-09T08:03:59;22.20;81.80
18694;DHT22;9477;51.414;10.362;2022-09-09T08:06:04;22.30;81.70
18694;DHT22;9477;51.414;10.362;2022-09-09T08:08:08;22.40;81.70
18694;DHT22;9477;51.414;10.362;2022-09-09T08:10:11;22.60;82.30
18694;DHT22;9477;51.414;10.362;2022-09-09T08:12:16;22.70;81.00
18694;DHT22;9477;51.414;10.362;2022-09-09T08:14:19;22.80;80.80
18694;DHT22;9477;51.414;10.362;2022-09-09T08:16:25;22.90;81.30
18694;DHT22;9477;51.414;10.362;2022-09-09T08:18:28;22.90;81.00
18694;DHT22;9477;51.414;10.362;2022-09-09T08:20:32;22.90;80.80
18694;DHT22;9477;51.414;10.362;2022-09-09T08:22:34;23.00;80.20
18694;DHT22;9477;51.414;10.362;2022-09-09T08:24:39;22.90;80.20
18694;DHT22;9477;51.414;10.362;2022-09-09T08:26:44;23.00;80.70
18694;DHT22;9477;51.414;10.362;2022-09-09T08:28:47;23.10;80.60
18694;DHT22;9477;51.414;10.362;2022-09-09T08:30:50;23.10;80.30
18694;DHT22;9477;51.414;10.362;2022-09-09T08:32:54;23.20;80.30
18694;DHT22;9477;51.414;10.362;2022-09-09T08:34:57;23.20;80.40
18694;DHT22;9477;51.414;10.362;2022-09-09T08:37:10;23.10;79.80
18694;DHT22;9477;51.414;10.362;2022-09-09T08:39:14;23.10;79.80
18694;DHT22;9477;51.414;10.362;2022-09-09T08:41:39;23.20;79.80
18694;DHT22;9477;51.414;10.362;2022-09-09T08:43:46;23.10;79.40
18694;DHT22;9477;51.414;10.362;2022-09-09T08:45:57;23.20;79.90
18694;DHT22;9477;51.414;10.362;2022-09-09T08:48:09;23.20;79.60
18694;DHT22;9477;51.414;10.362;2022-09-09T08:50:22;23.20;79.30
18694;DHT22;9477;51.414;10.362;2022-09-09T08:52:30;23.20;79.60
18694;DHT22;9477;51.414;10.362;2022-09-09T08:54:34;23.30;79.90
18694;DHT22;9477;51.414;10.362;2022-09-09T08:56:52;23.40;79.70
18694;DHT22;9477;51.414;10.362;2022-09-09T08:58:56;23.30;78.70
18694;DHT22;9477;51.414;10.362;2022-09-09T09:01:17;23.30;79.00
18694;DHT22;9477;51.414;10.362;2022-09-09T09:03:30;23.30;78.80
18694;DHT22;9477;51.414;10.362;2022-09-09T09:05:42;23.30;78.90
18694;DHT22;9477;51.414;10.362;2022-09-09T09:07:58;23.40;78.80
18694;DHT22;9477;51.414;10.362;2022-09-09T09:10:08;23.30;78.70
18694;DHT22;9477;51.414;10.362;2022-09-09T09:12:37;23.40;79.70
18694;DHT22;9477;51.414;10.362;2022-09-09T09:14:41;23.40;79.00
18694;DHT22;9477;51.414;10.362;2022-09-09T09:16:52;23.50;79.10
18694;DHT22;9477;51.414;10.362;2022-09-09T09:18:58;23.60;78.70
18694;DHT22;9477;51.414;10.362;2022-09-09T09:21:07;23.60;78.30
18694;DHT22;9477;51.414;10.362;2022-09-09T09:23:18;23.70;78.40
18694;DHT22;9477;51.414;10.362;2022-09-09T09:25:29;23.80;77.60
18694;DHT22;9477;51.414;10.362;2022-09-09T09:27:35;23.70;78.30
18694;DHT22;9477;51.414;10.362;2022-09-09T09:29:40;23.70;77.10
18694;DHT22;9477;51.414;10.362;2022-09-09T09:32:03;23.60;76.70
18694;DHT22;9477;51.414;10.362;2022-09-09T09:34:08;23.50;76.90
18694;DHT22;9477;51.414;10.362;2022-09-09T09:36:13;23.60;77.00
18694;DHT22;9477;51.414;10.362;2022-09-09T09:38:19;23.60;77.10
18694;DHT22;9477;51.414;10.362;2022-09-09T09:40:49;23.70;77.20
18694;DHT22;9477;51.414;10.362;2022-09-09T09:42:54;23.90;76.90
18694;DHT22;9477;51.414;10.362;2022-09-09T09:45:07;23.90;76.40
18694;DHT22;9477;51.414;10.362;2022-09-09T09:47:12;23.90;76.10
18694;DHT22;9477;51.414;10.362;2022-09-09T09:49:15;24.00;75.80
18694;DHT22;9477;51.414;10.362;2022-09-09T09:51:21;24.00;74.70
18694;DHT22;9477;51.414;10.362;2022-09-09T09:53:27;24.00;74.70
18694;DHT22;9477;51.414;10.362;2022-09-09T09:55:32;24.00;74.40
18694;DHT22;9477;51.414;10.362;2022-09-09T09:57:36;24.20;75.10
18694;DHT22;9477;51.414;10.362;2022-09-09T09:59:39;24.30;74.10
18694;DHT22;9477;51.414;10.362;2022-09-09T10:01:42;24.20;74.10
18694;DHT22;9477;51.414;10.362;2022-09-09T10:03:51;24.30;74.00
18694;DHT22;9477;51.414;10.362;2022-09-09T10:05:54;24.40;73.30
18694;DHT22;9477;51.414;10.362;2022-09-09T10:08:05;24.30;73.20
18694;DHT22;9477;51.414;10.362;2022-09-09T10:10:16;24.40;73.40
18694;DHT22;9477;51.414;10.362;2022-09-09T10:12:31;24.50;73.60
18694;DHT22;9477;51.414;10.362;2022-09-09T10:14:44;24.60;73.00
18694;DHT22;9477;51.414;10.362;2022-09-09T10:17:11;24.60;72.30
18694;DHT22;9477;51.414;10.362;2022-09-09T10:19:19;24.70;72.40
18694;DHT22;9477;51.414;10.362;2022-09-09T10:21:41;24.70;72.00
18694;DHT22;9477;51.414;10.362;2022-09-09T10:23:58;24.70;72.00
18694;DHT22;9477;51.414;10.362;2022-09-09T10:26:17;24.70;71.00
18694;DHT22;9477;51.414;10.362;2022-09-09T10:28:33;24.70;71.70
18694;DHT22;9477;51.414;10.362;2022-09-09T10:30:46;24.80;71.90
18694;DHT22;9477;51.414;10.362;2022-09-09T10:32:58;24.90;71.70
18694;DHT22;9477;51.414;10.362;2022-09-09T10:35:13;25.10;71.90
18694;DHT22;9477;51.414;10.362;2022-09-09T10:37:26;25.10;71.20
18694;DHT22;9477;51.414;10.362;2022-09-09T10:39:35;25.10;70.90
18694;DHT22;9477;51.414;10.362;2022-09-09T10:41:51;25.20;70.60
18694;DHT22;9477;51.414;10.362;2022-09-09T10:44:26;25.30;69.90
18694;DHT22;9477;51.414;10.362;2022-09-09T10:46:38;25.30;70.10
18694;DHT22;9477;51.414;10.362;2022-09-09T10:48:55;25.40;69.60
18694;DHT22;9477;51.414;10.362;2022-09-09T10:51:13;25.40;70.10
18694;DHT22;9477;51.414;10.362;2022-09-09T10:53:25;25.60;69.80
18694;DHT22;9477;51.414;10.362;2022-09-09T10:55:37;25.70;69.60
18694;DHT22;9477;51.414;10.362;2022-09-09T10:57:44;25.80;68.70
18694;DHT22;9477;51.414;10.362;2022-09-09T10:59:53;25.80;68.20
18694;DHT22;9477;51.414;10.362;2022-09-09T11:02:01;25.80;68.30
18694;DHT22;9477;51.414;10.362;2022-09-09T11:04:13;25.70;67.20
18694;DHT22;9477;51.414;10.362;2022-09-09T11:06:20;25.60;67.00
18694;DHT22;9477;51.414;10.362;2022-09-09T11:08:27;25.60;68.00
18694;DHT22;9477;51.414;10.362;2022-09-09T11:10:38;25.70;67.50
18694;DHT22;9477;51.414;10.362;2022-09-09T11:12:45;25.70;67.50
18694;DHT22;9477;51.414;10.362;2022-09-09T11:14:53;25.50;66.60
18694;DHT22;9477;51.414;10.362;2022-09-09T11:17:02;25.50;66.40
18694;DHT22;9477;51.414;10.362;2022-09-09T11:19:13;25.60;67.00
18694;DHT22;9477;51.414;10.362;2022-09-09T11:21:19;25.70;67.50
18694;DHT22;9477;51.414;10.362;2022-09-09T11:23:27;25.90;67.10
18694;DHT22;9477;51.414;10.362;2022-09-09T11:25:36;26.00;67.40
18694;DHT22;9477;51.414;10.362;2022-09-09T11:27:49;26.00;67.40
18694;DHT22;9477;51.414;10.362;2022-09-09T11:30:05;26.10;67.00
18694;DHT22;9477;51.414;10.362;2022-09-09T11:32:24;26.00;66.80
18694;DHT22;9477;51.414;10.362;2022-09-09T11:34:38;26.10;67.20
18694;DHT22;9477;51.414;10.362;2022-09-09T11:37:00;26.20;66.90
18694;DHT22;9477;51.414;10.362;2022-09-09T11:39:25;26.40;66.20
18694;DHT22;9477;51.414;10.362;2022-09-09T11:41:35;26.40;65.80
18694;DHT22;9477;51.414;10.362;2022-09-09T11:43:42;26.40;66.10
18694;DHT22;9477;51.414;10.362;2022-09-09T11:45:51;26.40;66.00
18694;DHT22;9477;51.414;10.362;2022-09-09T11:48:02;26.40;65.70
18694;DHT22;9477;51.414;10.362;2022-09-09T11:50:09;26.40;66.10
18694;DHT22;9477;51.414;10.362;2022-09-09T11:52:21;26.40;65.70
18694;DHT22;9477;51.414;10.362;2022-09-09T11:54:29;26.30;65.60
18694;DHT22;9477;51.414;10.362;2022-09-09T11:56:41;26.30;65.60
18694;DHT22;9477;51.414;10.362;2022-09-09T11:58:55;26.40;66.20
18694;DHT22;9477;51.414;10.362;2022-09-09T12:00:59;26.50;66.40
18694;DHT22;9477;51.414;10.362;2022-09-09T12:03:02;26.50;65.30
18694;DHT22;9477;51.414;10.362;2022-09-09T12:05:07;26.70;65.90
18694;DHT22;9477;51.414;10.362;2022-09-09T12:07:30;26.90;65.60
18694;DHT22;9477;51.414;10.362;2022-09-09T12:09:46;27.00;64.00
18694;DHT22;9477;51.414;10.362;2022-09-09T12:11:52;27.10;63.00
18694;DHT22;9477;51.414;10.362;2022-09-09T12:13:59;27.10;62.40
18694;DHT22;9477;51.414;10.362;2022-09-09T12:16:02;27.00;61.20
18694;DHT22;9477;51.414;10.362;2022-09-09T12:18:07;27.00;62.10
18694;DHT22;9477;51.414;10.362;2022-09-09T12:20:20;27.00;61.60
18694;DHT22;9477;51.414;10.362;2022-09-09T12:22:32;27.00;62.10
18694;DHT22;9477;51.414;10.362;2022-09-09T12:24:39;27.00;61.00
18694;DHT22;9477;51.414;10.362;2022-09-09T12:26:50;27.00;60.50
18694;DHT22;9477;51.414;10.362;2022-09-09T12:29:09;26.90;60.50
18694;DHT22;9477;51.414;10.362;2022-09-09T12:31:20;26.90;60.30
18694;DHT22;9477;51.414;10.362;2022-09-09T12:33:32;26.90;60.30
18694;DHT22;9477;51.414;10.362;2022-09-09T12:35:39;26.90;61.30
18694;DHT22;9477;51.414;10.362;2022-09-09T12:37:47;26.90;61.00
18694;DHT22;9477;51.414;10.362;2022-09-09T12:39:56;26.90;60.80
18694;DHT22;9477;51.414;10.362;2022-09-09T12:42:00;26.90;60.80
18694;DHT22;9477;51.414;10.362;2022-09-09T12:44:09;26.70;59.50
18694;DHT22;9477;51.414;10.362;2022-09-09T12:46:20;26.70;59.60
18694;DHT22;9477;51.414;10.362;2022-09-09T12:48:31;26.70;59.90
18694;DHT22;9477;51.414;10.362;2022-09-09T12:50:38;26.50;59.80
18694;DHT22;9477;51.414;10.362;2022-09-09T12:52:47;26.50;60.60
18694;DHT22;9477;51.414;10.362;2022-09-09T12:54:51;26.60;59.90
18694;DHT22;9477;51.414;10.362;2022-09-09T12:56:55;26.80;59.80
18694;DHT22;9477;51.414;10.362;2022-09-09T12:58:59;26.80;60.30
18694;DHT22;9477;51.414;10.362;2022-09-09T13:01:05;26.90;59.90
18694;DHT22;9477;51.414;10.362;2022-09-09T13:03:17;27.00;60.30
18694;DHT22;9477;51.414;10.362;2022-09-09T13:05:23;27.10;60.20
18694;DHT22;9477;51.414;10.362;2022-09-09T13:07:26;27.20;59.80
18694;DHT22;9477;51.414;10.362;2022-09-09T13:09:29;27.20;58.50
18694;DHT22;9477;51.414;10.362;2022-09-09T13:11:36;27.20;60.00
18694;DHT22;9477;51.414;10.362;2022-09-09T13:13:42;27.40;58.60
18694;DHT22;9477;51.414;10.362;2022-09-09T13:15:49;27.30;57.00
18694;DHT22;9477;51.414;10.362;2022-09-09T13:17:56;27.30;57.10
18694;DHT22;9477;51.414;10.362;2022-09-09T13:19:59;27.30;56.00
18694;DHT22;9477;51.414;10.362;2022-09-09T13:22:11;27.30;56.50
18694;DHT22;9477;51.414;10.362;2022-09-09T13:24:28;27.30;56.50
18694;DHT22;9477;51.414;10.362;2022-09-09T13:26:31;27.10;57.00